Time;durP1;ratioP1;P1;durP2;ratioP2;P2;SDS_P1;SDS_P2;PMS_P1;PMS_P2;Temp;Humidity;BMP_temperature;BMP_pressure;BME280_temperature;BME280_humidity;BME280_pressure;Samples;Min_cycle;Max_cycle;Signal;HPM_P1;HPM_P2
2023/08/17 00:00:34;;;;;;;8.50;6.60;;;;;;;23.01;68.63;100097.82;219043;1257;140548;-66
2023/08/17 00:05:58;;;;;;;8.20;6.30;;;;;;;23.00;68.71;100097.77;217804;1257;224736;-67
2023/08/17 00:11:03;;;;;;;10.60;6.20;;;;;;;22.98;68.70;100088.86;218911;1260;140588;-69
2023/08/17 00:16:08;;;;;;;9.00;5.60;;;;;;;22.94;68.95;100082.22;218659;1260;140237;-66
2023/08/17 00:21:12;;;;;;;10.00;5.70;;;;;;;22.91;69.08;100075.30;219416;1257;140105;-66
2023/08/17 00:26:17;;;;;;;7.40;5.60;;;;;;;22.87;69.13;100082.23;217840;1257;141001;-66
2023/08/17 00:31:23;;;;;;;6.40;5.60;;;;;;;22.83;69.30;100080.69;217652;1260;141467;-65
2023/08/17 00:36:28;;;;;;;6.30;5.00;;;;;;;22.79;69.39;100080.38;218502;1257;139547;-65
2023/08/17 00:41:34;;;;;;;5.80;5.20;;;;;;;22.75;69.56;100075.95;217375;1258;141710;-67
2023/08/17 00:46:40;;;;;;;8.50;5.80;;;;;;;22.70;69.89;100076.02;217755;1260;139311;-67
2023/08/17 00:51:45;;;;;;;6.50;5.10;;;;;;;22.64;69.93;100075.00;217432;1257;139930;-66
2023/08/17 00:56:51;;;;;;;5.50;5.00;;;;;;;22.59;70.09;100074.05;218528;1257;140698;-67
2023/08/17 01:01:55;;;;;;;;;;;;;;;22.52;70.19;100077.13;217983;1257;140530;-66
2023/08/17 01:07:01;;;;;;;8.30;5.30;;;;;;;22.48;70.44;100072.31;220157;1259;126875;-66
2023/08/17 01:12:30;;;;;;;5.90;4.80;;;;;;;22.46;70.37;100077.74;218923;1258;140549;-67
2023/08/17 01:17:43;;;;;;;10.80;4.80;;;;;;;22.43;70.40;100081.05;220170;1261;140032;-65
2023/08/17 01:22:53;;;;;;;5.20;4.70;;;;;;;22.38;70.53;100076.39;218924;1257;140861;-68
2023/08/17 01:27:58;;;;;;;6.00;5.30;;;;;;;22.26;70.64;100080.95;220375;1257;139732;-68
2023/08/17 01:33:11;;;;;;;6.80;4.70;;;;;;;22.22;71.06;100085.70;220084;1260;141432;-69
2023/08/17 01:38:19;;;;;;;7.00;5.00;;;;;;;22.24;71.22;100079.48;220206;1257;140089;-70
2023/08/17 01:43:26;;;;;;;5.00;4.60;;;;;;;22.25;71.40;100083.37;218814;1261;140546;-70
2023/08/17 01:48:31;;;;;;;5.80;4.80;;;;;;;22.25;71.58;100080.02;219012;1257;139658;-69
2023/08/17 01:53:35;;;;;;;8.70;6.00;;;;;;;22.19;71.52;100077.36;219469;1260;139523;-69
2023/08/17 01:58:41;;;;;;;5.80;5.30;;;;;;;22.15;71.77;100075.42;218879;1257;140322;-69
2023/08/17 02:03:46;;;;;;;8.10;6.00;;;;;;;22.10;71.86;100071.44;218435;1261;140377;-68
2023/08/17 02:08:51;;;;;;;6.80;5.80;;;;;;;22.06;72.15;100071.10;219178;1257;141258;-68
2023/08/17 02:13:57;;;;;;;6.90;6.30;;;;;;;22.02;72.16;100070.84;218622;1262;140256;-67
2023/08/17 02:19:01;;;;;;;9.80;6.50;;;;;;;21.94;72.31;100070.06;217677;1262;140383;-68
2023/08/17 02:24:07;;;;;;;6.80;5.70;;;;;;;21.90;72.42;100074.83;217976;1257;140703;-68
2023/08/17 02:29:12;;;;;;;12.30;6.20;;;;;;;21.83;72.59;100073.52;218547;1257;140026;-69
2023/08/17 02:34:17;;;;;;;5.90;5.30;;;;;;;21.78;72.99;100070.75;218665;1257;140125;-68
2023/08/17 02:39:22;;;;;;;10.00;6.60;;;;;;;21.73;73.14;100077.84;217882;1258;140034;-67
2023/08/17 02:44:28;;;;;;;7.50;6.60;;;;;;;21.70;73.28;100077.91;218173;1262;140980;-67
2023/08/17 02:49:35;;;;;;;10.60;6.30;;;;;;;21.68;73.78;100077.48;218144;1260;141383;-67
2023/08/17 02:54:39;;;;;;;12.70;5.20;;;;;;;21.65;73.88;100074.97;219081;1262;140419;-68
2023/08/17 02:59:44;;;;;;;7.80;6.40;;;;;;;21.62;74.07;100069.11;218370;1262;140377;-66
2023/08/17 03:04:49;;;;;;;7.00;5.60;;;;;;;21.58;74.31;100076.92;219088;1258;139789;-68
2023/08/17 03:09:54;;;;;;;8.80;5.50;;;;;;;21.55;74.38;100075.64;217951;1262;141116;-67
2023/08/17 03:14:59;;;;;;;21.80;6.60;;;;;;;21.49;74.47;100081.16;217974;1261;140180;-67
2023/08/17 03:20:06;;;;;;;6.20;5.60;;;;;;;21.46;74.76;100084.85;219645;1257;140108;-67
2023/08/17 03:25:10;;;;;;;7.60;5.90;;;;;;;21.38;74.85;100084.02;219308;1257;139812;-68
2023/08/17 03:30:15;;;;;;;8.80;5.80;;;;;;;21.29;74.99;100077.83;219571;1257;140335;-67
2023/08/17 03:35:20;;;;;;;6.60;6.00;;;;;;;21.23;75.07;100078.90;220100;1257;140158;-68
2023/08/17 03:40:25;;;;;;;6.30;5.40;;;;;;;21.17;75.24;100083.30;218911;1257;140559;-68
2023/08/17 03:45:30;;;;;;;7.30;5.50;;;;;;;21.14;75.26;100082.86;218886;1258;140009;-68
2023/08/17 03:50:35;;;;;;;8.20;7.10;;;;;;;21.14;75.58;100093.59;218879;1257;139632;-67
2023/08/17 03:55:45;;;;;;;10.40;5.80;;;;;;;21.12;75.62;100097.22;217852;1257;139914;-68
2023/08/17 04:00:51;;;;;;;7.70;6.40;;;;;;;21.07;75.85;100098.02;219160;1257;140710;-68
2023/08/17 04:05:56;;;;;;;7.70;6.30;;;;;;;21.08;76.05;100096.70;217881;1257;139871;-67
2023/08/17 04:11:00;;;;;;;6.90;6.30;;;;;;;21.12;76.32;100098.08;218137;1257;154165;-68
2023/08/17 04:16:05;;;;;;;8.10;6.70;;;;;;;21.15;76.65;100107.89;217949;1260;139135;-68
2023/08/17 04:21:10;;;;;;;9.40;6.10;;;;;;;21.17;76.68;100118.70;218361;1260;140802;-67
2023/08/17 04:26:15;;;;;;;12.30;6.60;;;;;;;21.18;76.84;100128.23;218241;1257;140090;-66
2023/08/17 04:31:20;;;;;;;6.60;5.90;;;;;;;21.19;76.86;100136.30;218040;1257;139703;-70
2023/08/17 04:36:26;;;;;;;9.30;7.80;;;;;;;21.24;77.13;100139.25;218531;1257;140000;-67
2023/08/17 04:41:31;;;;;;;8.30;7.20;;;;;;;21.32;77.06;100137.73;218679;1257;139688;-68
2023/08/17 04:46:38;;;;;;;8.30;7.00;;;;;;;21.38;77.25;100147.16;217885;1260;139779;-67
2023/08/17 04:51:43;;;;;;;6.50;5.60;;;;;;;21.39;77.38;100152.52;219009;1257;139934;-67
2023/08/17 04:56:48;;;;;;;8.50;6.60;;;;;;;21.40;77.36;100166.58;219532;1257;139974;-67
2023/08/17 05:01:54;;;;;;;8.10;6.90;;;;;;;21.47;77.49;100161.48;218937;1258;139646;-68
2023/08/17 05:06:59;;;;;;;8.40;7.60;;;;;;;21.57;77.26;100160.99;218864;1257;139951;-66
2023/08/17 05:12:05;;;;;;;27.10;7.00;;;;;;;21.68;77.20;100159.45;219395;1257;140913;-66
2023/08/17 05:17:09;;;;;;;8.00;7.00;;;;;;;21.78;77.01;100163.17;220359;1257;141472;-66
2023/08/17 05:22:13;;;;;;;14.40;7.80;;;;;;;21.92;76.92;100160.65;220129;1257;140729;-66
2023/08/17 05:27:17;;;;;;;7.10;6.50;;;;;;;22.07;76.59;100161.37;219955;1257;139702;-66
2023/08/17 05:32:22;;;;;;;7.00;6.20;;;;;;;22.20;76.41;100154.29;219536;1257;140121;-66
2023/08/17 05:37:29;;;;;;;8.10;6.50;;;;;;;22.35;76.33;100162.01;219310;1256;208916;-66
2023/08/17 05:42:33;;;;;;;6.50;5.80;;;;;;;22.53;76.03;100173.11;218371;1257;141104;-68
2023/08/17 05:47:38;;;;;;;7.60;6.80;;;;;;;22.67;75.91;100176.66;217631;1260;140179;-68
2023/08/17 05:52:43;;;;;;;7.20;6.60;;;;;;;22.78;75.77;100175.21;219228;1256;140376;-68
2023/08/17 05:57:47;;;;;;;8.90;6.50;;;;;;;22.88;75.41;100185.23;218226;1260;140293;-68
2023/08/17 06:02:51;;;;;;;8.90;6.70;;;;;;;22.94;75.00;100193.39;218464;1257;141736;-68
2023/08/17 06:07:57;;;;;;;7.00;6.50;;;;;;;23.03;74.71;100186.64;217459;1260;139551;-70
2023/08/17 06:13:02;;;;;;;6.20;5.70;;;;;;;23.19;74.74;100200.63;218054;1257;140451;-72
2023/08/17 06:18:06;;;;;;;7.40;6.70;;;;;;;23.35;74.24;100203.41;218522;1257;139996;-75
2023/08/17 06:23:11;;;;;;;7.20;5.90;;;;;;;23.51;74.13;100196.84;218825;1256;140034;-75
2023/08/17 06:28:15;;;;;;;7.80;5.40;;;;;;;23.65;73.65;100200.36;217638;1257;141980;-71
2023/08/17 06:33:21;;;;;;;5.40;4.90;;;;;;;23.67;73.24;100196.13;218118;1257;140085;-71
2023/08/17 06:38:26;;;;;;;;;;;;;;;23.61;72.96;100201.71;219444;1257;139237;-72
2023/08/17 06:43:32;;;;;;;6.70;6.10;;;;;;;23.57;73.13;100198.44;218124;1257;127063;-71
2023/08/17 06:48:37;;;;;;;7.00;6.40;;;;;;;23.60;72.87;100198.91;219906;1257;162115;-72
2023/08/17 06:53:41;;;;;;;6.60;5.70;;;;;;;23.62;72.57;100200.70;219518;1257;141131;-71
2023/08/17 06:58:47;;;;;;;9.40;7.40;;;;;;;23.83;72.47;100202.52;218690;1257;140284;-70
2023/08/17 07:03:50;;;;;;;7.40;6.70;;;;;;;24.22;71.85;100201.84;220199;1256;139623;-71
2023/08/17 07:08:54;;;;;;;6.50;5.90;;;;;;;24.69;71.45;100212.95;220355;1256;140746;-70
2023/08/17 07:14:00;;;;;;;9.00;6.60;;;;;;;24.91;70.75;100212.13;217870;1257;140183;-69
2023/08/17 07:19:05;;;;;;;10.50;7.30;;;;;;;24.94;70.03;100201.98;219802;1256;139420;-70
2023/08/17 07:24:15;;;;;;;7.30;6.60;;;;;;;24.92;69.61;100203.02;219915;1256;140828;-71
2023/08/17 07:29:20;;;;;;;9.00;7.50;;;;;;;24.94;69.49;100210.86;219843;1256;140845;-70
2023/08/17 07:34:24;;;;;;;7.90;7.20;;;;;;;25.05;69.31;100208.14;219389;1257;142320;-70
2023/08/17 07:39:29;;;;;;;9.90;7.50;;;;;;;25.18;68.99;100209.80;218067;1257;140136;-72
2023/08/17 07:44:36;;;;;;;8.30;7.50;;;;;;;25.31;68.90;100205.65;219221;1256;140203;-68
2023/08/17 07:49:43;;;;;;;9.00;8.10;;;;;;;25.38;68.48;100208.08;217561;1257;140086;-69
2023/08/17 07:54:51;;;;;;;7.70;6.60;;;;;;;25.51;68.29;100206.14;218622;1256;141536;-68
2023/08/17 07:59:57;;;;;;;11.90;6.70;;;;;;;25.66;67.99;100212.23;217796;1256;139604;-70
2023/08/17 08:05:03;;;;;;;10.30;7.50;;;;;;;25.80;67.76;100215.86;217612;1257;140534;-71
2023/08/17 08:10:11;;;;;;;9.20;8.40;;;;;;;26.13;67.51;100223.42;217856;1256;140367;-68
2023/08/17 08:15:17;;;;;;;9.50;8.60;;;;;;;26.58;67.12;100236.87;218368;1257;139636;-68
2023/08/17 08:20:22;;;;;;;9.50;8.20;;;;;;;26.94;66.19;100245.36;218312;1257;140492;-69
2023/08/17 08:25:28;;;;;;;10.00;7.40;;;;;;;26.97;65.53;100238.50;217831;1257;140756;-70
2023/08/17 08:30:34;;;;;;;11.00;7.30;;;;;;;27.08;65.15;100237.15;218623;1257;139761;-68
2023/08/17 08:35:40;;;;;;;9.60;8.30;;;;;;;27.13;64.55;100240.08;217754;1260;139817;-68
2023/08/17 08:40:51;;;;;;;10.90;8.30;;;;;;;27.19;64.29;100240.77;218335;1260;140050;-66
2023/08/17 08:46:00;;;;;;;7.90;7.20;;;;;;;27.40;64.01;100233.91;218240;1257;141010;-68
2023/08/17 08:51:11;;;;;;;9.30;7.00;;;;;;;27.58;63.47;100237.84;219828;1257;139366;-69
2023/08/17 08:56:21;;;;;;;12.20;7.40;;;;;;;27.85;63.59;100237.12;218187;1256;139816;-69
2023/08/17 09:01:29;;;;;;;10.40;7.50;;;;;;;27.96;62.55;100233.98;218757;1256;140789;-69
2023/08/17 09:06:36;;;;;;;11.00;7.10;;;;;;;27.87;61.87;100233.20;219378;1257;141098;-69
2023/08/17 09:11:42;;;;;;;12.40;7.60;;;;;;;27.80;61.69;100229.77;219191;1256;138937;-68
2023/08/17 09:16:49;;;;;;;8.50;7.60;;;;;;;27.76;61.81;100226.27;219246;1256;140269;-69
2023/08/17 09:21:55;;;;;;;8.40;7.70;;;;;;;27.95;62.12;100232.69;218780;1260;139050;-68
2023/08/17 09:27:03;;;;;;;9.80;8.70;;;;;;;28.08;61.63;100231.33;217933;1257;138171;-67
2023/08/17 09:32:16;;;;;;;15.00;7.80;;;;;;;28.15;61.24;100231.95;217744;1259;140253;-66
2023/08/17 09:37:21;;;;;;;7.60;6.90;;;;;;;28.22;61.23;100229.70;218295;1257;139266;-68
2023/08/17 09:42:27;;;;;;;13.10;7.40;;;;;;;28.17;60.85;100229.05;218088;1260;140213;-68
2023/08/17 09:47:32;;;;;;;13.70;7.60;;;;;;;28.19;60.64;100222.45;217620;1260;139969;-67
2023/08/17 09:52:39;;;;;;;19.60;8.70;;;;;;;28.70;61.05;100217.39;218595;1258;140290;-68
2023/08/17 09:57:46;;;;;;;8.80;8.10;;;;;;;29.06;60.53;100220.96;218714;1258;140599;-68
2023/08/17 10:02:53;;;;;;;10.60;9.50;;;;;;;29.26;60.17;100220.37;217743;1257;138880;-67
2023/08/17 10:08:01;;;;;;;10.70;9.70;;;;;;;29.77;60.27;100224.18;217926;1257;139090;-69
2023/08/17 10:13:26;;;;;;;10.10;9.30;;;;;;;30.35;59.45;100224.23;217916;1260;139252;-70
2023/08/17 10:19:13;;;;;;;9.50;8.50;;;;;;;30.56;57.48;100223.58;218612;1257;138877;-68
2023/08/17 10:24:20;;;;;;;11.30;8.80;;;;;;;30.56;57.14;100219.92;218854;1258;138980;-69
2023/08/17 10:29:27;;;;;;;11.30;9.20;;;;;;;30.57;56.90;100221.68;217994;1257;139083;-68
2023/08/17 10:34:35;;;;;;;11.20;9.90;;;;;;;30.34;56.72;100214.91;218227;1257;140520;-68
2023/08/17 10:39:51;;;;;;;12.50;9.60;;;;;;;30.13;56.44;100209.54;218491;1257;139308;-67
2023/08/17 10:44:57;;;;;;;10.40;9.40;;;;;;;29.89;56.22;100214.39;219058;1259;139647;-67
2023/08/17 10:50:07;;;;;;;10.10;9.10;;;;;;;29.67;55.82;100214.27;218375;1257;140685;-68
2023/08/17 10:55:14;;;;;;;14.40;11.80;;;;;;;29.42;56.06;100207.60;217990;1257;139719;-66
2023/08/17 11:00:34;;;;;;;12.80;9.60;;;;;;;29.34;56.55;100206.96;220280;1257;140111;-68
2023/08/17 11:05:53;;;;;;;11.80;10.80;;;;;;;29.40;56.73;100209.11;218054;1256;140719;-68
2023/08/17 11:11:12;;;;;;;14.50;12.00;;;;;;;29.50;56.56;100204.63;219509;1257;140278;-68
2023/08/17 11:16:19;;;;;;;12.10;10.80;;;;;;;29.64;56.68;100206.65;218330;1257;140594;-68
2023/08/17 11:21:26;;;;;;;12.20;11.00;;;;;;;29.69;56.26;100206.38;218151;1257;140846;-68
2023/08/17 11:26:33;;;;;;;12.00;10.70;;;;;;;29.81;56.34;100199.18;218462;1256;139316;-68
2023/08/17 11:31:40;;;;;;;10.70;9.80;;;;;;;29.97;55.97;100196.99;217990;1257;139732;-67
2023/08/17 11:36:46;;;;;;;10.30;9.20;;;;;;;29.92;55.42;100196.78;217862;1256;1342324;-68
2023/08/17 11:41:52;;;;;;;10.90;9.70;;;;;;;29.81;55.49;100194.78;218710;1256;139954;-68
2023/08/17 11:46:57;;;;;;;10.80;9.80;;;;;;;30.14;55.43;100186.45;218496;1257;139252;-69
2023/08/17 11:52:05;;;;;;;11.10;10.00;;;;;;;30.70;55.52;100190.87;219072;1257;139170;-68
2023/08/17 11:57:11;;;;;;;16.30;10.70;;;;;;;31.19;54.66;100196.05;218578;1256;139322;-69
2023/08/17 12:02:16;;;;;;;11.40;10.40;;;;;;;31.02;53.77;100188.60;218657;1259;139583;-69
2023/08/17 12:07:25;;;;;;;11.20;10.20;;;;;;;31.13;53.83;100183.58;218640;1256;139261;-68
2023/08/17 12:12:31;;;;;;;10.60;9.90;;;;;;;30.89;53.02;100181.24;218943;1256;139741;-68
2023/08/17 12:17:36;;;;;;;12.70;11.10;;;;;;;30.75;53.39;100181.95;218205;1256;138756;-68
2023/08/17 12:22:43;;;;;;;11.70;10.60;;;;;;;30.69;53.19;100181.50;218804;1255;139570;-67
2023/08/17 12:27:49;;;;;;;15.50;10.20;;;;;;;30.53;53.73;100183.23;218042;1259;139334;-68
2023/08/17 12:32:58;;;;;;;10.40;9.30;;;;;;;30.54;53.82;100184.13;219180;1256;139315;-68
2023/08/17 12:38:05;;;;;;;11.50;10.50;;;;;;;30.52;53.89;100185.58;220504;1256;141093;-68
2023/08/17 12:43:10;;;;;;;12.00;9.80;;;;;;;30.49;53.69;100186.05;220126;1256;139393;-68
2023/08/17 12:48:19;;;;;;;12.70;11.60;;;;;;;30.55;53.63;100183.31;220541;1256;140038;-68
2023/08/17 12:53:23;;;;;;;50.70;13.00;;;;;;;30.57;53.76;100184.29;219758;1255;140231;-69
2023/08/17 12:58:27;;;;;;;326.40;32.00;;;;;;;30.60;53.38;100179.23;220540;1255;139741;-68
2023/08/17 13:03:33;;;;;;;10.30;9.00;;;;;;;30.67;53.70;100178.08;219898;1256;139849;-67
2023/08/17 13:08:37;;;;;;;12.50;11.50;;;;;;;30.63;53.41;100179.01;219320;1256;139124;-68
2023/08/17 13:13:42;;;;;;;11.60;10.50;;;;;;;30.66;53.78;100169.33;218779;1256;140404;-68
2023/08/17 13:18:47;;;;;;;11.60;10.50;;;;;;;30.67;53.56;100162.35;218036;1257;139517;-67
2023/08/17 13:23:53;;;;;;;12.10;11.00;;;;;;;30.66;53.43;100162.87;218949;1255;139035;-67
2023/08/17 13:29:02;;;;;;;32.40;13.10;;;;;;;30.56;53.20;100156.27;219164;1257;140174;-67
2023/08/17 13:34:08;;;;;;;14.30;12.10;;;;;;;30.56;53.51;100157.08;218337;1256;139248;-66
2023/08/17 13:39:13;;;;;;;11.20;10.20;;;;;;;30.60;53.29;100156.23;217988;1256;139505;-67
2023/08/17 13:44:17;;;;;;;15.40;13.90;;;;;;;30.41;52.98;100160.24;218542;1259;139070;-66
2023/08/17 13:49:23;;;;;;;17.90;12.60;;;;;;;30.26;53.30;100158.95;218684;1256;138935;-68
2023/08/17 13:54:29;;;;;;;13.00;11.70;;;;;;;30.16;53.07;100163.88;218324;1256;140732;-66
2023/08/17 13:59:34;;;;;;;15.70;13.70;;;;;;;30.10;53.24;100160.38;218735;1255;140003;-68
2023/08/17 14:04:39;;;;;;;18.20;13.30;;;;;;;30.11;53.07;100162.13;218400;1256;139166;-68
2023/08/17 14:09:44;;;;;;;24.40;14.80;;;;;;;30.24;53.63;100159.53;218130;1256;139630;-68
2023/08/17 14:15:09;;;;;;;19.70;13.90;;;;;;;30.41;53.32;100157.16;218300;1256;246635;-68
2023/08/17 14:20:15;;;;;;;14.70;13.40;;;;;;;30.47;53.00;100157.00;218905;1256;140008;-67
2023/08/17 14:25:21;;;;;;;14.70;13.10;;;;;;;30.51;53.24;100150.20;218529;1256;139431;-69
2023/08/17 14:30:27;;;;;;;14.30;12.90;;;;;;;30.65;52.27;100151.15;218988;1259;140455;-68
2023/08/17 14:35:33;;;;;;;13.00;11.80;;;;;;;30.81;52.03;100149.77;219325;1257;140085;-69
2023/08/17 14:40:38;;;;;;;18.20;13.00;;;;;;;30.88;51.90;100141.34;219391;1259;140275;-67
2023/08/17 14:45:47;;;;;;;13.90;12.50;;;;;;;30.96;51.70;100140.24;219552;1259;140940;-66
2023/08/17 14:50:54;;;;;;;13.30;12.00;;;;;;;31.03;51.25;100135.99;219799;1257;140059;-67
2023/08/17 14:55:59;;;;;;;13.10;12.10;;;;;;;31.08;50.55;100136.26;219862;1256;140354;-67
2023/08/17 15:01:03;;;;;;;13.50;12.20;;;;;;;31.08;50.55;100135.31;218795;1256;139816;-70
2023/08/17 15:06:09;;;;;;;12.70;11.40;;;;;;;31.07;50.12;100131.27;218295;1257;139492;-66
2023/08/17 15:11:35;;;;;;;15.50;11.00;;;;;;;31.12;50.22;100138.81;218552;1257;141480;-67
2023/08/17 15:16:43;;;;;;;14.60;11.80;;;;;;;31.15;49.43;100134.08;218593;1257;140418;-66
2023/08/17 15:21:49;;;;;;;11.70;10.60;;;;;;;31.14;49.59;100129.48;218578;1256;140261;-66
2023/08/17 15:26:54;;;;;;;12.10;11.00;;;;;;;31.05;49.25;100131.39;218179;1257;139428;-67
2023/08/17 15:32:01;;;;;;;12.10;11.10;;;;;;;31.01;49.14;100124.23;218284;1257;139153;-67
2023/08/17 15:37:07;;;;;;;11.00;10.10;;;;;;;30.86;48.30;100125.89;219219;1257;140363;-67
2023/08/17 15:42:12;;;;;;;8.80;8.10;;;;;;;30.72;48.33;100123.30;218374;1257;140563;-66
2023/08/17 15:47:18;;;;;;;9.80;8.90;;;;;;;30.53;47.45;100120.82;218154;1256;138512;-66
2023/08/17 15:52:23;;;;;;;10.40;7.60;;;;;;;30.31;47.18;100115.12;218012;1257;139245;-66
2023/08/17 15:57:30;;;;;;;9.70;8.80;;;;;;;30.12;47.11;100117.61;218297;1259;139058;-67
2023/08/17 16:02:36;;;;;;;11.80;9.10;;;;;;;29.92;47.37;100118.65;217938;1259;138978;-66
2023/08/17 16:07:42;;;;;;;19.60;10.30;;;;;;;29.88;47.87;100110.07;218468;1259;139366;-66
2023/08/17 16:12:47;;;;;;;9.10;8.40;;;;;;;29.84;48.12;100110.38;218322;1257;139907;-67
2023/08/17 16:17:52;;;;;;;11.70;9.40;;;;;;;29.75;48.80;100110.77;219231;1258;142294;-67
2023/08/17 16:23:05;;;;;;;10.60;9.70;;;;;;;29.65;48.65;100110.60;218789;1256;141119;-67
2023/08/17 16:28:10;;;;;;;10.90;10.00;;;;;;;29.55;49.21;100109.63;219789;1256;140353;-67
2023/08/17 16:33:15;;;;;;;;;;;;;;;29.44;50.07;100110.59;218295;1257;139570;-66
2023/08/17 16:38:19;;;;;;;11.70;10.70;;;;;;;29.30;51.06;100115.14;220431;1255;125882;-67
2023/08/17 16:43:25;;;;;;;11.90;10.80;;;;;;;29.15;51.67;100126.80;218922;1257;139841;-67
2023/08/17 16:48:30;;;;;;;15.50;10.00;;;;;;;28.98;51.87;100124.84;219162;1256;139769;-68
2023/08/17 16:53:35;;;;;;;12.20;11.10;;;;;;;28.80;52.36;100132.27;220207;1257;140309;-67
2023/08/17 16:58:48;;;;;;;12.80;11.20;;;;;;;28.58;52.93;100128.23;219164;1257;139614;-67
2023/08/17 17:03:52;;;;;;;;;;;;;;;28.33;54.09;100131.23;218343;1257;139534;-64
2023/08/17 17:08:57;;;;;;;22.30;11.90;;;;;;;28.04;55.03;100134.02;218976;1257;126036;-67
2023/08/17 17:14:01;;;;;;;17.20;13.20;;;;;;;27.83;56.04;100140.36;219869;1257;141232;-66
2023/08/17 17:19:06;;;;;;;17.20;11.10;;;;;;;27.63;56.29;100135.29;218270;1257;139321;-66
2023/08/17 17:24:12;;;;;;;13.60;11.70;;;;;;;27.46;56.76;100133.42;218484;1257;139642;-65
2023/08/17 17:29:17;;;;;;;;;;;;;;;27.32;57.59;100131.36;219359;1257;140023;-67
2023/08/17 17:34:27;;;;;;;11.00;10.20;;;;;;;27.11;58.36;100132.48;219086;1257;125884;-65
2023/08/17 17:39:34;;;;;;;11.80;10.70;;;;;;;26.88;59.00;100145.31;218491;1259;140357;-65
2023/08/17 17:44:38;;;;;;;12.30;9.50;;;;;;;26.56;58.57;100144.15;218523;1257;140410;-67
2023/08/17 17:49:43;;;;;;;10.30;9.40;;;;;;;26.41;58.68;100141.02;219169;1257;139784;-65
2023/08/17 17:54:49;;;;;;;16.20;9.00;;;;;;;26.34;58.62;100149.70;218015;1259;139849;-65
2023/08/17 17:59:54;;;;;;;12.00;8.60;;;;;;;26.25;58.66;100149.33;218556;1257;139626;-64
2023/08/17 18:04:59;;;;;;;11.70;8.80;;;;;;;26.17;58.69;100147.96;219225;1259;140376;-66
2023/08/17 18:10:04;;;;;;;;;;;;;;;26.12;58.79;100143.80;219410;1257;140093;-69
2023/08/17 18:15:09;;;;;;;9.00;7.90;;;;;;;26.07;59.08;100144.11;219593;1256;126350;-65
2023/08/17 18:20:13;;;;;;;8.50;7.70;;;;;;;26.02;59.25;100142.11;218143;1259;139198;-64
2023/08/17 18:25:19;;;;;;;14.30;8.70;;;;;;;25.95;59.84;100139.81;220149;1257;139854;-65
2023/08/17 18:30:25;;;;;;;10.40;9.30;;;;;;;25.86;60.27;100138.04;218820;1257;140798;-65
2023/08/17 18:35:30;;;;;;;9.50;8.60;;;;;;;25.76;60.43;100129.35;218547;1257;140799;-67
2023/08/17 18:40:39;;;;;;;11.10;9.00;;;;;;;25.64;60.73;100132.95;218677;1257;140302;-67
2023/08/17 18:45:47;;;;;;;11.20;8.60;;;;;;;25.54;61.06;100131.25;219803;1257;140149;-65
2023/08/17 18:50:56;;;;;;;20.10;9.00;;;;;;;25.42;61.40;100120.94;218593;1256;237648;-65
2023/08/17 18:56:03;;;;;;;12.10;11.10;;;;;;;25.31;61.96;100116.59;218649;1257;139875;-65
2023/08/17 19:01:09;;;;;;;10.70;9.30;;;;;;;25.16;62.27;100107.02;218449;1257;141664;-65
2023/08/17 19:06:17;;;;;;;13.60;11.60;;;;;;;25.04;62.68;100105.93;218354;1259;139954;-66
2023/08/17 19:11:21;;;;;;;22.30;13.80;;;;;;;24.92;63.16;100096.32;218730;1257;140346;-64
2023/08/17 19:16:27;;;;;;;17.70;13.90;;;;;;;24.80;63.43;100086.11;217918;1257;140160;-67
2023/08/17 19:21:32;;;;;;;22.60;14.70;;;;;;;24.66;63.67;100085.41;218820;1257;140133;-66
2023/08/17 19:26:37;;;;;;;16.20;9.50;;;;;;;24.43;63.87;100107.79;218544;1259;140466;-66
2023/08/17 19:31:43;;;;;;;11.00;9.10;;;;;;;24.10;64.19;100115.70;218749;1259;141414;-65
2023/08/17 19:36:48;;;;;;;10.30;9.40;;;;;;;23.83;64.88;100119.61;218099;1257;140526;-66
2023/08/17 19:41:54;;;;;;;9.90;9.00;;;;;;;23.71;65.53;100116.70;218390;1259;140066;-69
2023/08/17 19:47:00;;;;;;;10.50;9.60;;;;;;;23.58;66.06;100115.76;218209;1256;141185;-66
2023/08/17 19:52:04;;;;;;;11.30;10.30;;;;;;;23.52;66.35;100121.62;217667;1256;140014;-65
2023/08/17 19:57:10;;;;;;;10.70;9.70;;;;;;;23.45;66.75;100125.79;218424;1257;141018;-67
2023/08/17 20:02:15;;;;;;;10.20;9.00;;;;;;;23.34;66.86;100123.94;217691;1257;142136;-67
2023/08/17 20:07:21;;;;;;;11.90;9.10;;;;;;;23.04;66.76;100123.47;219113;1256;140654;-68
2023/08/17 20:12:26;;;;;;;10.40;9.50;;;;;;;22.85;67.56;100124.09;219490;1257;140795;-68
2023/08/17 20:17:31;;;;;;;12.90;10.30;;;;;;;22.67;67.60;100134.02;219849;1257;143057;-68
2023/08/17 20:22:36;;;;;;;10.50;9.50;;;;;;;22.59;67.86;100131.55;219102;1257;141133;-68
2023/08/17 20:27:42;;;;;;;15.30;9.80;;;;;;;22.54;68.23;100132.62;220307;1255;140842;-67
2023/08/17 20:32:46;;;;;;;;;;;;;;;22.50;68.64;100132.20;220342;1257;141442;-67
2023/08/17 20:37:49;;;;;;;10.80;9.70;;;;;;;22.41;68.77;100133.69;220705;1256;126381;-67
2023/08/17 20:42:53;;;;;;;12.70;9.10;;;;;;;22.34;68.97;100134.54;218260;1259;140334;-67
2023/08/17 20:48:00;;;;;;;12.20;8.60;;;;;;;22.24;68.95;100138.69;218659;1259;140191;-67
2023/08/17 20:53:05;;;;;;;13.70;9.30;;;;;;;22.01;69.07;100144.69;219567;1259;248466;-67
2023/08/17 20:58:10;;;;;;;10.50;9.10;;;;;;;21.77;69.44;100144.25;218694;1260;139875;-66
2023/08/17 21:03:15;;;;;;;11.00;9.00;;;;;;;21.56;69.79;100139.90;218302;1257;140469;-68
2023/08/17 21:08:20;;;;;;;14.00;11.00;;;;;;;21.42;70.18;100141.22;218926;1257;141754;-68
2023/08/17 21:13:25;;;;;;;15.00;9.30;;;;;;;21.35;70.85;100139.18;217448;1258;140655;-67
2023/08/17 21:18:29;;;;;;;11.50;9.60;;;;;;;21.33;71.17;100133.14;219005;1260;140682;-68
2023/08/17 21:23:35;;;;;;;12.10;9.60;;;;;;;21.28;71.21;100131.20;218323;1259;141586;-68
2023/08/17 21:28:38;;;;;;;10.80;9.50;;;;;;;21.15;71.35;100146.02;219196;1257;139967;-66
2023/08/17 21:33:42;;;;;;;11.50;9.70;;;;;;;20.97;71.45;100150.73;218051;1257;141018;-67
2023/08/17 21:38:47;;;;;;;10.40;9.30;;;;;;;20.79;71.91;100151.46;217660;1260;140148;-67
2023/08/17 21:43:53;;;;;;;19.40;11.10;;;;;;;20.76;72.34;100155.27;217892;1257;139724;-69
2023/08/17 21:48:57;;;;;;;11.60;9.50;;;;;;;20.66;72.51;100146.30;219536;1259;140311;-69
2023/08/17 21:54:03;;;;;;;9.80;8.80;;;;;;;20.58;72.62;100138.48;218089;1257;140977;-67
2023/08/17 21:59:06;;;;;;;10.70;9.80;;;;;;;20.40;72.76;100141.15;218554;1257;140466;-67
2023/08/17 22:04:11;;;;;;;12.30;9.40;;;;;;;20.29;73.23;100143.42;219936;1257;162596;-69
2023/08/17 22:09:16;;;;;;;9.40;8.50;;;;;;;20.26;73.43;100139.50;219587;1260;140103;-68
2023/08/17 22:14:21;;;;;;;9.90;9.20;;;;;;;20.12;73.55;100137.89;219239;1260;140714;-68
2023/08/17 22:19:25;;;;;;;9.80;8.90;;;;;;;20.06;73.84;100132.76;220407;1260;141111;-68
2023/08/17 22:24:31;;;;;;;10.10;9.30;;;;;;;20.06;74.10;100137.04;219976;1258;141259;-67
2023/08/17 22:29:54;;;;;;;10.00;9.10;;;;;;;20.04;74.38;100140.24;220342;1258;140478;-68
2023/08/17 22:35:00;;;;;;;13.30;9.50;;;;;;;19.90;74.40;100140.50;219405;1260;140564;-67
2023/08/17 22:40:06;;;;;;;11.20;10.00;;;;;;;19.74;74.68;100142.49;217941;1260;139891;-67
2023/08/17 22:45:12;;;;;;;11.40;10.20;;;;;;;19.59;75.29;100145.55;219106;1260;140125;-68
2023/08/17 22:50:17;;;;;;;13.80;11.80;;;;;;;19.49;75.74;100158.30;219023;1256;141214;-67
2023/08/17 22:55:21;;;;;;;12.60;11.40;;;;;;;19.42;76.41;100157.23;218351;1257;140365;-67
2023/08/17 23:00:25;;;;;;;17.10;12.00;;;;;;;19.42;77.10;100156.80;219580;1257;140223;-67